Time;durP1;ratioP1;P1;durP2;ratioP2;P2;SDS_P1;SDS_P2;PMS_P1;PMS_P2;Temp;Humidity;BMP_temperature;BMP_pressure;BME280_temperature;BME280_humidity;BME280_pressure;Samples;Min_cycle;Max_cycle;Signal;HPM_P1;HPM_P2
2022/10/06 00:01:14;;;;;;;;;;;14.10;73.60;;;;;;5045126;28;20371;-77
2022/10/06 00:03:40;;;;;;;;;;;14.10;73.60;;;;;;5042856;28;19945;-76
2022/10/06 00:06:06;;;;;;;;;;;14.10;73.60;;;;;;5058332;28;19920;-77
2022/10/06 00:08:32;;;;;;;;;;;14.10;73.70;;;;;;5054569;28;19930;-75
2022/10/06 00:10:57;;;;;;;;;;;14.00;73.70;;;;;;5054866;28;19920;-77
2022/10/06 00:13:23;;;;;;;;;;;14.00;73.70;;;;;;5051797;28;19919;-77
2022/10/06 00:15:48;;;;;;;;;;;14.00;73.80;;;;;;5060401;28;20458;-76
2022/10/06 00:18:14;;;;;;;;;;;13.90;73.70;;;;;;5055117;28;19916;-77
2022/10/06 00:20:42;;;;;;;;;;;13.90;73.80;;;;;;5037498;28;19955;-76
2022/10/06 00:23:07;;;;;;;;;;;13.90;73.80;;;;;;5057701;28;19921;-77
2022/10/06 00:25:33;;;;;;;;;;;13.90;73.80;;;;;;5041740;28;19943;-76
2022/10/06 00:27:59;;;;;;;;;;;13.80;73.80;;;;;;5072688;28;20384;-77
2022/10/06 00:30:25;;;;;;;;;;;13.80;73.80;;;;;;5059280;28;19926;-76
2022/10/06 00:32:51;;;;;;;;;;;13.80;73.90;;;;;;5058786;28;19919;-76
2022/10/06 00:35:17;;;;;;;;;;;13.80;73.90;;;;;;5054504;28;19945;-77
2022/10/06 00:37:42;;;;;;;;;;;13.80;73.90;;;;;;5055183;28;19908;-76
2022/10/06 00:40:09;;;;;;;;;;;13.80;74.00;;;;;;5046070;28;19908;-77
2022/10/06 00:42:47;;;;;;;;;;;13.70;74.00;;;;;;5055987;28;19959;-76
2022/10/06 00:45:12;;;;;;;;;;;13.70;74.00;;;;;;5055167;28;19908;-76
2022/10/06 00:47:38;;;;;;;;;;;13.70;74.00;;;;;;5053308;28;19914;-76
2022/10/06 00:50:03;;;;;;;;;;;13.70;74.00;;;;;;5041655;28;20049;-77
2022/10/06 00:52:29;;;;;;;;;;;13.60;74.10;;;;;;5046324;28;20384;-76
2022/10/06 00:54:55;;;;;;;;;;;13.60;74.10;;;;;;5057751;28;20620;-77
2022/10/06 00:57:20;;;;;;;;;;;13.60;74.10;;;;;;5073170;28;20400;-76
2022/10/06 00:59:45;;;;;;;;;;;13.60;74.40;;;;;;5076859;28;20623;-76
2022/10/06 01:02:12;;;;;;;;;;;13.60;74.20;;;;;;5043090;28;19920;-77
2022/10/06 01:04:39;;;;;;;;;;;13.50;74.20;;;;;;5042792;28;19912;-76
2022/10/06 01:07:05;;;;;;;;;;;13.50;74.20;;;;;;5037639;28;19916;-77
2022/10/06 01:09:31;;;;;;;;;;;13.50;74.30;;;;;;5059431;28;19920;-76
2022/10/06 01:11:57;;;;;;;;;;;13.50;74.30;;;;;;5044245;28;19920;-77
2022/10/06 01:14:23;;;;;;;;;;;13.50;74.40;;;;;;5057746;28;19949;-76
2022/10/06 01:17:09;;;;;;;;;;;13.40;74.30;;;;;;5076369;28;19917;-76
2022/10/06 01:19:37;;;;;;;;;;;13.50;74.40;;;;;;5079321;28;19923;-77
2022/10/06 01:22:04;;;;;;;;;;;13.40;74.30;;;;;;5060937;28;19935;-76
2022/10/06 01:24:30;;;;;;;;;;;13.40;74.40;;;;;;5059999;28;21163;-77
2022/10/06 01:26:55;;;;;;;;;;;13.40;74.40;;;;;;5074126;28;19916;-77
2022/10/06 01:29:21;;;;;;;;;;;13.40;74.40;;;;;;5058885;28;20003;-76
2022/10/06 01:31:46;;;;;;;;;;;13.30;74.40;;;;;;5047071;28;19912;-77
2022/10/06 01:34:12;;;;;;;;;;;13.40;74.50;;;;;;5059556;28;20395;-77
2022/10/06 01:36:38;;;;;;;;;;;13.30;74.50;;;;;;5057823;28;19927;-77
2022/10/06 01:39:04;;;;;;;;;;;13.30;74.50;;;;;;5074902;28;20452;-76
2022/10/06 01:41:32;;;;;;;;;;;13.30;74.50;;;;;;5062314;28;20003;-77
2022/10/06 01:43:57;;;;;;;;;;;13.30;75.50;;;;;;5047428;28;19920;-76
2022/10/06 01:46:23;;;;;;;;;;;13.30;74.50;;;;;;5045089;28;19912;-76
2022/10/06 01:48:48;;;;;;;;;;;13.30;74.60;;;;;;5059208;28;19919;-77
2022/10/06 01:51:14;;;;;;;;;;;13.30;74.70;;;;;;5043314;28;20287;-76
2022/10/06 01:53:40;;;;;;;;;;;13.30;74.70;;;;;;5046630;28;19920;-77
2022/10/06 01:56:06;;;;;;;;;;;13.30;74.70;;;;;;5075516;28;19927;-76
2022/10/06 01:58:31;;;;;;;;;;;13.30;74.70;;;;;;5061291;28;19925;-75
2022/10/06 02:00:57;;;;;;;;;;;13.30;74.70;;;;;;5075167;28;19976;-76
2022/10/06 02:03:22;;;;;;;;;;;13.30;75.50;;;;;;5055773;28;19931;-77
2022/10/06 02:05:48;;;;;;;;;;;13.20;74.70;;;;;;5046225;28;19919;-77
2022/10/06 02:08:13;;;;;;;;;;;13.30;74.70;;;;;;5043506;28;19912;-76
2022/10/06 02:10:39;;;;;;;;;;;13.30;74.80;;;;;;5060629;28;19918;-76
2022/10/06 02:13:04;;;;;;;;;;;13.30;74.80;;;;;;5051238;28;19915;-76
2022/10/06 02:15:32;;;;;;;;;;;13.30;74.90;;;;;;5090244;28;19920;-76
2022/10/06 02:17:57;;;;;;;;;;;13.40;74.90;;;;;;5058308;28;19920;-76
2022/10/06 02:20:23;;;;;;;;;;;13.40;74.80;;;;;;5057351;28;19923;-76
2022/10/06 02:22:48;;;;;;;;;;;13.50;74.80;;;;;;5056857;28;19912;-76
2022/10/06 02:25:14;;;;;;;;;;;13.60;74.90;;;;;;5057850;28;19918;-77
2022/10/06 02:27:39;;;;;;;;;;;13.60;74.80;;;;;;5072254;28;19930;-76
2022/10/06 02:30:05;;;;;;;;;;;13.70;74.70;;;;;;5040774;28;19915;-76
2022/10/06 02:32:31;;;;;;;;;;;13.80;74.70;;;;;;5059688;28;19922;-76
2022/10/06 02:34:58;;;;;;;;;;;13.90;74.60;;;;;;5063364;28;19981;-76
2022/10/06 02:37:24;;;;;;;;;;;13.90;74.50;;;;;;5073985;28;19916;-77
2022/10/06 02:39:49;;;;;;;;;;;14.00;74.50;;;;;;5055938;28;19923;-78
2022/10/06 02:42:15;;;;;;;;;;;14.00;74.60;;;;;;5054755;28;20564;-76
2022/10/06 02:44:41;;;;;;;;;;;14.10;74.50;;;;;;5059456;28;19966;-77
2022/10/06 02:47:09;;;;;;;;;;;14.00;74.40;;;;;;5056305;28;19916;-77
2022/10/06 02:49:35;;;;;;;;;;;14.10;74.40;;;;;;5040537;28;19916;-77
2022/10/06 02:52:00;;;;;;;;;;;14.10;74.40;;;;;;5057898;28;19912;-77
2022/10/06 02:54:25;;;;;;;;;;;14.10;74.50;;;;;;5048160;28;20402;-76
2022/10/06 02:56:51;;;;;;;;;;;14.10;74.40;;;;;;5057234;28;19928;-76
2022/10/06 02:59:16;;;;;;;;;;;14.10;74.40;;;;;;5058910;28;19924;-76
2022/10/06 03:01:42;;;;;;;;;;;14.20;74.50;;;;;;5058070;28;20424;-76
2022/10/06 03:04:07;;;;;;;;;;;14.20;74.50;;;;;;5076494;28;19915;-76
2022/10/06 03:06:33;;;;;;;;;;;14.20;74.40;;;;;;5055560;28;19912;-76
2022/10/06 03:09:02;;;;;;;;;;;14.20;74.40;;;;;;5046611;28;20270;-76
2022/10/06 03:11:28;;;;;;;;;;;14.20;74.40;;;;;;5055454;28;19920;-77
2022/10/06 03:13:54;;;;;;;;;;;14.20;74.40;;;;;;5055766;28;20553;-76
2022/10/06 03:16:20;;;;;;;;;;;14.30;74.50;;;;;;5041952;28;19970;-77
2022/10/06 03:18:46;;;;;;;;;;;14.30;74.80;;;;;;5038995;28;19920;-76
2022/10/06 03:21:13;;;;;;;;;;;14.30;74.40;;;;;;5053462;28;19978;-77
2022/10/06 03:23:39;;;;;;;;;;;14.30;74.40;;;;;;5055493;28;19942;-76
2022/10/06 03:26:04;;;;;;;;;;;14.30;74.40;;;;;;5057482;28;20327;-77
2022/10/06 03:28:30;;;;;;;;;;;14.40;74.50;;;;;;5043127;28;20010;-76
2022/10/06 03:30:59;;;;;;;;;;;14.40;74.40;;;;;;5089813;28;19950;-77
2022/10/06 03:33:25;;;;;;;;;;;14.40;74.40;;;;;;5037871;28;19916;-77
2022/10/06 03:35:57;;;;;;;;;;;14.50;74.50;;;;;;5056759;28;21885;-77
2022/10/06 03:38:22;;;;;;;;;;;14.50;74.40;;;;;;5088563;28;19982;-77
2022/10/06 03:40:48;;;;;;;;;;;14.50;74.40;;;;;;5065517;28;20520;-77
2022/10/06 03:43:13;;;;;;;;;;;14.60;74.40;;;;;;5064877;28;19948;-77
2022/10/06 03:45:39;;;;;;;;;;;14.60;74.40;;;;;;5055227;28;19969;-78
2022/10/06 03:48:04;;;;;;;;;;;14.70;74.40;;;;;;5056984;28;20023;-77
2022/10/06 03:50:30;;;;;;;;;;;14.70;74.30;;;;;;5054040;28;20403;-77
2022/10/06 03:52:55;;;;;;;;;;;14.70;74.30;;;;;;5070667;28;19923;-77
2022/10/06 03:55:20;;;;;;;;;;;14.80;74.30;;;;;;5070704;28;20238;-77
2022/10/06 03:57:46;;;;;;;;;;;14.80;74.30;;;;;;5077091;28;19977;-77
2022/10/06 04:00:12;;;;;;;;;;;14.80;74.30;;;;;;5052378;28;19977;-77
2022/10/06 04:02:37;;;;;;;;;;;14.90;74.30;;;;;;5066432;28;19916;-76
2022/10/06 04:05:03;;;;;;;;;;;14.90;74.30;;;;;;5045676;28;19920;-76
2022/10/06 04:07:28;;;;;;;;;;;14.90;74.20;;;;;;5070270;28;19926;-77
2022/10/06 04:09:54;;;;;;;;;;;15.00;74.30;;;;;;5039478;28;20011;-78
2022/10/06 04:12:19;;;;;;;;;;;15.00;74.30;;;;;;5042575;28;20557;-76
2022/10/06 04:14:45;;;;;;;;;;;15.00;74.30;;;;;;5040591;28;19990;-77
2022/10/06 04:17:11;;;;;;;;;;;15.00;74.30;;;;;;5053178;28;19920;-77
2022/10/06 04:19:36;;;;;;;;;;;15.00;74.30;;;;;;5051859;28;19966;-76
2022/10/06 04:22:02;;;;;;;;;;;15.00;74.30;;;;;;5071466;28;19919;-77
2022/10/06 04:24:27;;;;;;;;;;;15.00;74.30;;;;;;5054779;28;19935;-77
2022/10/06 04:27:26;;;;;;;;;;;15.00;74.30;;;;;;5053587;28;20374;-78
2022/10/06 04:29:38;;;;;;;;;;;15.00;74.30;;;;;;5071164;28;19912;-77
2022/10/06 04:32:03;;;;;;;;;;;15.00;74.30;;;;;;5056102;28;20433;-76
2022/10/06 04:34:29;;;;;;;;;;;15.00;74.30;;;;;;5054338;28;19962;-76
2022/10/06 04:36:55;;;;;;;;;;;15.00;74.30;;;;;;5055464;28;20507;-76
2022/10/06 04:39:20;;;;;;;;;;;15.00;74.40;;;;;;5039397;28;19916;-77
2022/10/06 04:41:46;;;;;;;;;;;15.00;74.40;;;;;;5040658;28;19997;-76
2022/10/06 04:44:11;;;;;;;;;;;15.00;74.40;;;;;;5070326;28;19923;-77
2022/10/06 04:46:37;;;;;;;;;;;15.00;74.40;;;;;;5086667;28;19944;-75
2022/10/06 04:49:02;;;;;;;;;;;14.90;74.40;;;;;;5058324;28;20318;-75
2022/10/06 04:51:28;;;;;;;;;;;14.90;74.40;;;;;;5071473;28;20019;-76
2022/10/06 04:53:54;;;;;;;;;;;14.90;74.40;;;;;;5054402;28;20551;-77
2022/10/06 04:56:23;;;;;;;;;;;14.90;74.40;;;;;;5073133;28;19923;-76
2022/10/06 04:58:49;;;;;;;;;;;14.90;74.50;;;;;;5055970;28;19936;-76
2022/10/06 05:01:15;;;;;;;;;;;14.90;74.50;;;;;;5068886;28;19919;-75
2022/10/06 05:03:41;;;;;;;;;;;14.90;74.60;;;;;;5070477;28;19923;-75
2022/10/06 05:06:07;;;;;;;;;;;14.90;74.60;;;;;;5057023;28;19912;-76
2022/10/06 05:08:33;;;;;;;;;;;14.90;74.60;;;;;;5053791;28;20419;-75
2022/10/06 05:11:00;;;;;;;;;;;14.90;74.60;;;;;;5091721;28;19913;-76
2022/10/06 05:13:25;;;;;;;;;;;14.90;74.70;;;;;;5052896;28;19912;-77
2022/10/06 05:15:57;;;;;;;;;;;14.90;74.70;;;;;;5067820;28;19931;-75
2022/10/06 05:18:23;;;;;;;;;;;14.90;74.70;;;;;;5054413;28;19919;-76
2022/10/06 05:20:55;;;;;;;;;;;14.80;74.60;;;;;;5052455;28;19919;-77
2022/10/06 05:23:21;;;;;;;;;;;14.80;74.70;;;;;;5052581;28;19915;-76
2022/10/06 05:25:51;;;;;;;;;;;14.80;74.60;;;;;;5070822;28;19923;-75
2022/10/06 05:28:17;;;;;;;;;;;14.80;74.60;;;;;;5040162;28;19962;-75
2022/10/06 05:30:42;;;;;;;;;;;14.80;74.70;;;;;;5057413;28;19935;-76
2022/10/06 05:33:10;;;;;;;;;;;14.80;74.70;;;;;;5054808;28;19912;-77
2022/10/06 05:35:35;;;;;;;;;;;14.80;74.70;;;;;;5054310;28;19912;-75
2022/10/06 05:38:00;;;;;;;;;;;14.80;74.70;;;;;;5042919;28;20284;-76
2022/10/06 05:40:26;;;;;;;;;;;14.80;74.70;;;;;;5053396;28;19916;-76
2022/10/06 05:42:53;;;;;;;;;;;14.80;75.50;;;;;;5088085;28;19920;-77
2022/10/06 05:45:19;;;;;;;;;;;14.80;74.80;;;;;;5053934;28;19946;-76
2022/10/06 05:47:44;;;;;;;;;;;14.80;74.80;;;;;;5066920;28;19920;-77
2022/10/06 05:50:10;;;;;;;;;;;14.70;74.70;;;;;;5054667;28;20614;-75
2022/10/06 05:52:35;;;;;;;;;;;14.80;74.80;;;;;;5056018;28;19915;-76
2022/10/06 05:55:01;;;;;;;;;;;14.80;74.80;;;;;;5070459;28;19916;-75
2022/10/06 05:57:26;;;;;;;;;;;14.80;74.80;;;;;;5058643;28;19931;-76
2022/10/06 05:59:52;;;;;;;;;;;14.80;74.80;;;;;;5072389;28;20038;-76
2022/10/06 06:02:17;;;;;;;;;;;14.70;74.80;;;;;;5071725;28;19937;-76
2022/10/06 06:04:43;;;;;;;;;;;14.70;74.80;;;;;;5041056;28;20087;-76
2022/10/06 06:07:08;;;;;;;;;;;14.70;74.80;;;;;;5058546;28;20444;-75
2022/10/06 06:09:34;;;;;;;;;;;14.70;74.80;;;;;;5059772;28;19912;-77
2022/10/06 06:11:59;;;;;;;;;;;14.70;74.80;;;;;;5072499;28;19923;-75
2022/10/06 06:17:10;;;;;;;;;;;14.70;74.90;;;;;;5067574;28;20503;-75
2022/10/06 06:19:35;;;;;;;;;;;14.70;74.90;;;;;;5060047;28;19927;-75
2022/10/06 06:22:01;;;;;;;;;;;14.70;74.90;;;;;;5075150;28;19916;-75
2022/10/06 06:24:26;;;;;;;;;;;14.70;74.90;;;;;;5058441;28;19951;-76
2022/10/06 06:26:52;;;;;;;;;;;14.70;74.90;;;;;;5057064;28;20388;-76
2022/10/06 06:29:17;;;;;;;;;;;14.70;74.90;;;;;;5071456;28;19961;-77
2022/10/06 06:31:45;;;;;;;;;;;14.70;74.90;;;;;;5054212;28;19938;-77
2022/10/06 06:34:10;;;;;;;;;;;14.70;74.90;;;;;;5045805;28;20827;-76
2022/10/06 06:36:39;;;;;;;;;;;14.70;74.90;;;;;;5041343;28;19915;-76
2022/10/06 06:39:05;;;;;;;;;;;14.70;74.90;;;;;;5070677;28;20429;-75
2022/10/06 06:41:32;;;;;;;;;;;14.70;74.90;;;;;;5057834;28;19919;-75
2022/10/06 06:44:00;;;;;;;;;;;14.80;74.90;;;;;;5054422;28;19920;-76
2022/10/06 06:46:27;;;;;;;;;;;14.80;74.90;;;;;;5044101;28;19967;-77
2022/10/06 06:48:53;;;;;;;;;;;14.80;74.90;;;;;;5056715;28;19956;-76
2022/10/06 06:51:21;;;;;;;;;;;14.80;74.90;;;;;;5044274;28;19912;-75
2022/10/06 06:53:47;;;;;;;;;;;14.90;75.00;;;;;;5041419;28;19923;-75
2022/10/06 06:56:12;;;;;;;;;;;14.90;74.90;;;;;;5074239;28;20303;-78
2022/10/06 06:58:38;;;;;;;;;;;14.90;74.90;;;;;;5072295;28;19920;-77
2022/10/06 07:01:05;;;;;;;;;;;15.00;74.80;;;;;;5062434;28;19919;-75
2022/10/06 07:03:30;;;;;;;;;;;15.00;74.80;;;;;;5045117;28;20709;-75
2022/10/06 07:06:08;;;;;;;;;;;15.10;74.80;;;;;;5039990;28;19916;-75
2022/10/06 07:08:36;;;;;;;;;;;15.10;74.70;;;;;;5057097;28;19912;-75
2022/10/06 07:11:18;;;;;;;;;;;15.20;74.80;;;;;;5044277;28;19916;-75
2022/10/06 07:13:43;;;;;;;;;;;15.20;74.70;;;;;;5062751;28;19912;-77
2022/10/06 07:27:08;;;;;;;;;;;15.60;74.40;;;;;;5057111;28;19919;-75
2022/10/06 07:29:34;;;;;;;;;;;15.70;74.40;;;;;;5056278;28;19916;-76
2022/10/06 07:31:59;;;;;;;;;;;15.80;74.30;;;;;;5059492;28;19912;-76
2022/10/06 07:34:25;;;;;;;;;;;15.90;74.20;;;;;;5073194;28;19908;-75
2022/10/06 07:36:53;;;;;;;;;;;16.00;74.20;;;;;;5069297;28;19920;-75
2022/10/06 07:39:19;;;;;;;;;;;16.20;74.20;;;;;;5073436;28;20466;-75
2022/10/06 07:41:44;;;;;;;;;;;16.30;74.00;;;;;;5055406;28;19965;-77
2022/10/06 07:44:10;;;;;;;;;;;16.40;73.80;;;;;;5070153;28;19923;-76
2022/10/06 07:46:35;;;;;;;;;;;16.50;73.60;;;;;;5058049;28;20041;-76
2022/10/06 07:49:01;;;;;;;;;;;16.60;73.50;;;;;;5070336;28;19920;-77
2022/10/06 07:51:27;;;;;;;;;;;16.60;73.50;;;;;;5068526;28;19995;-76
2022/10/06 07:53:52;;;;;;;;;;;16.70;73.40;;;;;;5069042;28;19931;-77
2022/10/06 07:56:19;;;;;;;;;;;16.70;73.30;;;;;;5057692;28;19912;-77
2022/10/06 07:58:47;;;;;;;;;;;16.70;73.30;;;;;;5070044;28;19939;-77
2022/10/06 08:01:14;;;;;;;;;;;16.70;73.30;;;;;;5071505;28;19916;-76
2022/10/06 08:03:40;;;;;;;;;;;16.80;73.30;;;;;;5055863;28;19908;-77
2022/10/06 08:06:05;;;;;;;;;;;16.90;73.40;;;;;;5056581;28;20402;-76
2022/10/06 08:08:31;;;;;;;;;;;17.00;73.30;;;;;;5056072;28;19999;-76
2022/10/06 08:10:57;;;;;;;;;;;17.10;73.20;;;;;;5071988;28;21182;-75
2022/10/06 08:13:23;;;;;;;;;;;17.30;73.10;;;;;;5069852;28;19920;-76
2022/10/06 08:15:49;;;;;;;;;;;17.40;72.90;;;;;;5056331;28;19956;-77
2022/10/06 08:18:14;;;;;;;;;;;17.50;72.80;;;;;;5051216;28;19908;-77
2022/10/06 08:20:40;;;;;;;;;;;17.60;72.70;;;;;;5066217;28;19920;-76
2022/10/06 08:23:07;;;;;;;;;;;17.70;72.50;;;;;;5069191;28;20380;-77
2022/10/06 08:25:35;;;;;;;;;;;17.80;72.40;;;;;;5071390;28;19908;-76
2022/10/06 08:28:00;;;;;;;;;;;17.80;72.40;;;;;;5070158;28;19968;-77
2022/10/06 08:30:26;;;;;;;;;;;18.00;72.40;;;;;;5053403;28;19913;-76
2022/10/06 08:32:51;;;;;;;;;;;18.10;72.20;;;;;;5070537;28;19920;-76
2022/10/06 08:35:17;;;;;;;;;;;18.20;72.10;;;;;;5067020;28;19923;-76
2022/10/06 08:37:42;;;;;;;;;;;18.30;71.90;;;;;;5056074;28;20444;-76
2022/10/06 08:40:09;;;;;;;;;;;18.40;71.80;;;;;;5073995;28;19916;-76
2022/10/06 08:42:38;;;;;;;;;;;18.50;71.70;;;;;;5070564;28;19999;-76
2022/10/06 08:45:05;;;;;;;;;;;18.60;71.60;;;;;;5054431;28;19913;-76
2022/10/06 08:47:34;;;;;;;;;;;18.60;71.50;;;;;;5075395;28;20679;-76
2022/10/06 08:49:59;;;;;;;;;;;18.70;71.50;;;;;;5040972;28;20003;-76
2022/10/06 08:52:45;;;;;;;;;;;18.90;71.40;;;;;;5052725;28;19987;-76
2022/10/06 08:55:13;;;;;;;;;;;19.00;71.30;;;;;;5068227;28;19998;-76
2022/10/06 08:57:42;;;;;;;;;;;19.20;71.20;;;;;;5069235;28;19975;-76
2022/10/06 09:00:09;;;;;;;;;;;19.30;71.00;;;;;;5073511;28;19925;-76
2022/10/06 09:02:37;;;;;;;;;;;19.50;70.90;;;;;;5071010;28;19912;-76
2022/10/06 09:05:04;;;;;;;;;;;19.60;70.60;;;;;;5041556;28;19954;-77
2022/10/06 09:07:35;;;;;;;;;;;19.70;70.40;;;;;;5059598;28;19981;-75
2022/10/06 09:10:09;;;;;;;;;;;19.80;70.30;;;;;;5068910;28;19927;-77
2022/10/06 09:12:36;;;;;;;;;;;19.90;70.10;;;;;;5042365;28;19923;-77
2022/10/06 09:15:21;;;;;;;;;;;20.00;70.10;;;;;;5056660;28;19943;-77
2022/10/06 09:17:48;;;;;;;;;;;20.20;70.00;;;;;;5071686;28;19921;-77
2022/10/06 09:20:19;;;;;;;;;;;20.20;69.90;;;;;;5051510;28;20293;-77
2022/10/06 09:22:45;;;;;;;;;;;20.30;69.80;;;;;;5054567;28;19948;-77
2022/10/06 09:25:15;;;;;;;;;;;20.40;69.70;;;;;;5054066;28;19920;-76
2022/10/06 09:27:41;;;;;;;;;;;20.50;69.60;;;;;;5067732;28;19928;-77
2022/10/06 09:30:10;;;;;;;;;;;20.60;69.50;;;;;;5055850;28;20054;-75
2022/10/06 09:32:35;;;;;;;;;;;20.70;69.20;;;;;;5041997;28;19913;-76
2022/10/06 09:35:03;;;;;;;;;;;20.70;69.10;;;;;;5058699;28;20477;-77
2022/10/06 09:37:29;;;;;;;;;;;20.80;69.10;;;;;;5068379;28;19984;-76
2022/10/06 09:39:54;;;;;;;;;;;20.80;69.00;;;;;;5076233;28;20566;-77
2022/10/06 09:42:24;;;;;;;;;;;20.90;68.90;;;;;;5066973;28;19912;-77
2022/10/06 09:44:49;;;;;;;;;;;21.00;68.90;;;;;;5074578;28;19935;-75
2022/10/06 09:47:33;;;;;;;;;;;21.20;68.90;;;;;;5070731;28;20454;-77
2022/10/06 09:50:11;;;;;;;;;;;21.30;68.70;;;;;;5071769;28;19923;-76
2022/10/06 09:52:37;;;;;;;;;;;21.40;68.30;;;;;;5057507;28;20459;-77
2022/10/06 09:55:05;;;;;;;;;;;21.50;68.20;;;;;;5060695;28;19912;-75
2022/10/06 09:57:31;;;;;;;;;;;21.70;68.20;;;;;;5058472;28;19937;-76
2022/10/06 09:59:58;;;;;;;;;;;21.80;67.90;;;;;;5071787;28;20592;-76
2022/10/06 10:02:27;;;;;;;;;;;21.90;67.80;;;;;;5090624;28;19917;-76
2022/10/06 10:04:53;;;;;;;;;;;22.10;67.60;;;;;;5057275;28;19919;-75
2022/10/06 10:07:26;;;;;;;;;;;22.10;67.50;;;;;;5058388;28;19916;-75
2022/10/06 10:09:51;;;;;;;;;;;22.30;67.50;;;;;;5069100;28;19966;-77
2022/10/06 10:12:23;;;;;;;;;;;22.40;67.40;;;;;;5075482;28;19967;-76
2022/10/06 10:14:51;;;;;;;;;;;22.60;67.10;;;;;;5071756;28;19930;-76
2022/10/06 10:17:17;;;;;;;;;;;22.80;66.80;;;;;;5075498;28;19924;-77
2022/10/06 10:19:46;;;;;;;;;;;22.90;66.50;;;;;;5070753;28;20524;-76
2022/10/06 10:22:22;;;;;;;;;;;23.00;66.40;;;;;;5069522;28;19916;-76
2022/10/06 10:25:14;;;;;;;;;;;23.20;66.30;;;;;;5073408;28;20002;-77
2022/10/06 10:27:59;;;;;;;;;;;23.40;66.10;;;;;;5068980;28;20400;-77
2022/10/06 10:30:27;;;;;;;;;;;23.40;65.90;;;;;;5070014;28;20525;-76
2022/10/06 10:32:56;;;;;;;;;;;23.60;65.80;;;;;;5056273;28;19920;-76
2022/10/06 10:35:23;;;;;;;;;;;23.70;65.70;;;;;;5055602;28;19920;-76
2022/10/06 10:37:50;;;;;;;;;;;23.70;65.50;;;;;;5054772;28;20058;-76
2022/10/06 10:40:22;;;;;;;;;;;23.80;65.40;;;;;;5059034;28;19996;-76
2022/10/06 10:42:48;;;;;;;;;;;23.90;65.30;;;;;;5088125;28;19916;-75
2022/10/06 10:45:17;;;;;;;;;;;24.10;65.20;;;;;;5073755;28;19908;-77
2022/10/06 10:47:43;;;;;;;;;;;24.20;65.10;;;;;;5041763;28;20320;-76
2022/10/06 10:50:15;;;;;;;;;;;24.30;64.90;;;;;;5071193;28;19914;-75
2022/10/06 10:52:41;;;;;;;;;;;24.50;64.70;;;;;;5057081;28;19915;-78
2022/10/06 10:55:15;;;;;;;;;;;24.60;64.50;;;;;;5059023;28;19912;-76
2022/10/06 10:57:40;;;;;;;;;;;24.70;64.40;;;;;;5084736;28;19928;-76
2022/10/06 11:00:06;;;;;;;;;;;24.70;64.30;;;;;;5043406;28;20665;-77
2022/10/06 11:02:34;;;;;;;;;;;24.80;64.20;;;;;;5054435;28;19916;-76
2022/10/06 11:05:16;;;;;;;;;;;24.90;64.00;;;;;;5055064;28;19954;-76
2022/10/06 11:07:45;;;;;;;;;;;25.00;64.00;;;;;;5039519;28;20562;-77
2022/10/06 11:10:12;;;;;;;;;;;25.10;63.80;;;;;;5054100;28;20555;-76
2022/10/06 11:12:50;;;;;;;;;;;25.20;63.80;;;;;;5089321;28;19918;-76
2022/10/06 11:15:15;;;;;;;;;;;25.30;63.60;;;;;;5068862;28;20055;-77
2022/10/06 11:17:45;;;;;;;;;;;25.20;63.60;;;;;;5073939;28;20418;-76
2022/10/06 11:20:14;;;;;;;;;;;25.20;63.60;;;;;;5041008;28;19966;-77
2022/10/06 11:23:03;;;;;;;;;;;25.10;63.70;;;;;;5069781;28;20283;-77
2022/10/06 11:25:41;;;;;;;;;;;25.20;63.70;;;;;;5069735;28;19927;-76
2022/10/06 11:28:11;;;;;;;;;;;25.40;63.60;;;;;;5057945;28;20010;-76
2022/10/06 11:30:39;;;;;;;;;;;25.50;63.30;;;;;;5069877;28;19923;-76
2022/10/06 11:33:12;;;;;;;;;;;25.70;63.30;;;;;;5072069;28;19912;-77
2022/10/06 11:35:38;;;;;;;;;;;25.80;63.00;;;;;;5066521;28;19916;-76
2022/10/06 11:38:07;;;;;;;;;;;25.90;62.70;;;;;;5058435;28;19923;-76
2022/10/06 11:40:35;;;;;;;;;;;25.90;62.60;;;;;;5071780;28;19947;-76
2022/10/06 11:43:07;;;;;;;;;;;26.00;62.60;;;;;;5070074;28;20462;-76
2022/10/06 11:45:37;;;;;;;;;;;26.10;62.50;;;;;;5054387;28;19946;-76
2022/10/06 11:48:09;;;;;;;;;;;26.20;62.40;;;;;;5059347;28;20418;-77
2022/10/06 11:50:43;;;;;;;;;;;26.30;62.30;;;;;;5069591;28;19925;-77
2022/10/06 11:53:25;;;;;;;;;;;26.40;62.20;;;;;;5053447;28;19919;-78
2022/10/06 11:56:09;;;;;;;;;;;26.30;62.10;;;;;;5055941;28;19916;-77
2022/10/06 11:58:50;;;;;;;;;;;26.30;62.00;;;;;;5057754;28;20517;-76
2022/10/06 12:01:31;;;;;;;;;;;26.30;62.00;;;;;;5071371;28;19919;-76
2022/10/06 12:04:03;;;;;;;;;;;26.30;62.00;;;;;;5068866;28;19923;-77
2022/10/06 12:06:40;;;;;;;;;;;26.40;62.00;;;;;;5069653;28;19920;-77
2022/10/06 12:09:28;;;;;;;;;;;26.30;62.00;;;;;;5053976;28;20013;-77
2022/10/06 12:11:54;;;;;;;;;;;26.30;62.00;;;;;;5071017;28;19912;-78
2022/10/06 12:14:31;;;;;;;;;;;26.30;61.90;;;;;;5052480;28;19916;-76
2022/10/06 12:17:18;;;;;;;;;;;26.20;62.00;;;;;;5069810;28;20015;-77
2022/10/06 12:20:16;;;;;;;;;;;26.20;62.00;;;;;;5053241;28;20320;-76
2022/10/06 12:22:49;;;;;;;;;;;26.30;61.90;;;;;;5013670;28;21626;-78
2022/10/06 12:25:23;;;;;;;;;;;26.30;61.90;;;;;;5051307;28;19920;-78
2022/10/06 12:27:54;;;;;;;;;;;26.30;61.90;;;;;;5085133;28;19912;-77
2022/10/06 12:30:43;;;;;;;;;;;26.20;61.80;;;;;;5052946;28;20300;-77
2022/10/06 12:33:14;;;;;;;;;;;26.20;61.80;;;;;;5024474;28;19942;-76
2022/10/06 12:35:40;;;;;;;;;;;26.20;61.60;;;;;;5055939;28;20561;-76
2022/10/06 12:38:25;;;;;;;;;;;26.30;61.60;;;;;;5070997;28;19946;-76
2022/10/06 12:40:53;;;;;;;;;;;26.30;61.70;;;;;;5069710;28;20400;-76
2022/10/06 12:43:24;;;;;;;;;;;26.40;61.60;;;;;;5068471;28;19961;-77
2022/10/06 12:45:58;;;;;;;;;;;26.40;61.50;;;;;;5042453;28;20382;-77
2022/10/06 12:48:38;;;;;;;;;;;26.50;61.30;;;;;;5060258;28;19912;-77
2022/10/06 12:51:20;;;;;;;;;;;26.50;61.20;;;;;;5055721;28;20010;-77
2022/10/06 12:54:00;;;;;;;;;;;26.50;61.10;;;;;;5057670;28;19924;-78
2022/10/06 12:56:27;;;;;;;;;;;26.50;61.00;;;;;;5069545;28;19924;-76
2022/10/06 12:58:53;;;;;;;;;;;26.60;61.00;;;;;;5054291;28;20447;-77
2022/10/06 13:01:18;;;;;;;;;;;26.60;60.90;;;;;;5042751;28;19912;-76
2022/10/06 13:03:47;;;;;;;;;;;26.70;60.90;;;;;;5067716;28;19974;-78
2022/10/06 13:06:13;;;;;;;;;;;26.60;60.70;;;;;;5056629;28;19916;-77
2022/10/06 13:08:38;;;;;;;;;;;26.60;60.70;;;;;;5042680;28;20053;-77
2022/10/06 13:11:10;;;;;;;;;;;26.60;60.70;;;;;;5073335;28;19912;-76
2022/10/06 13:13:35;;;;;;;;;;;26.70;60.70;;;;;;5076309;28;19992;-76
2022/10/06 13:16:01;;;;;;;;;;;26.70;60.50;;;;;;5047202;28;20011;-75
2022/10/06 13:18:26;;;;;;;;;;;26.70;60.50;;;;;;5076989;28;19917;-75
2022/10/06 13:20:52;;;;;;;;;;;26.80;60.40;;;;;;5050647;28;19974;-76
2022/10/06 13:23:22;;;;;;;;;;;26.80;60.50;;;;;;5072176;28;19942;-77
2022/10/06 13:25:49;;;;;;;;;;;26.90;60.40;;;;;;5055135;28;19923;-77
2022/10/06 13:28:18;;;;;;;;;;;26.90;60.30;;;;;;5053964;28;19912;-74
2022/10/06 13:30:48;;;;;;;;;;;26.90;60.10;;;;;;5087831;28;19919;-75
2022/10/06 13:33:13;;;;;;;;;;;26.90;60.00;;;;;;5073862;28;19923;-74
2022/10/06 13:35:39;;;;;;;;;;;26.90;60.10;;;;;;5071695;28;19920;-77
2022/10/06 13:38:04;;;;;;;;;;;26.90;60.10;;;;;;5042335;28;19919;-76
2022/10/06 13:40:31;;;;;;;;;;;26.90;60.10;;;;;;5053851;28;19919;-76
2022/10/06 13:42:58;;;;;;;;;;;26.90;60.00;;;;;;5042768;28;21454;-75
2022/10/06 13:45:24;;;;;;;;;;;27.00;59.90;;;;;;5077653;28;20006;-75
2022/10/06 13:48:10;;;;;;;;;;;27.10;59.80;;;;;;5057472;28;20046;-76
2022/10/06 13:50:37;;;;;;;;;;;27.20;59.80;;;;;;5061874;28;19912;-77
2022/10/06 13:53:03;;;;;;;;;;;27.30;59.70;;;;;;5047595;28;19998;-75
2022/10/06 13:55:30;;;;;;;;;;;27.40;59.50;;;;;;5073541;28;20034;-77
2022/10/06 13:57:55;;;;;;;;;;;27.50;59.40;;;;;;5074134;28;19974;-77
2022/10/06 14:00:21;;;;;;;;;;;27.60;59.40;;;;;;5060722;28;20371;-77
2022/10/06 14:02:54;;;;;;;;;;;27.60;59.20;;;;;;5076111;28;19935;-78
2022/10/06 14:05:19;;;;;;;;;;;27.70;59.10;;;;;;5055125;28;19912;-78
2022/10/06 14:07:46;;;;;;;;;;;27.70;59.10;;;;;;5073656;28;19920;-77
2022/10/06 14:10:19;;;;;;;;;;;27.70;59.10;;;;;;5074518;28;19912;-77
2022/10/06 14:12:44;;;;;;;;;;;27.80;59.10;;;;;;5038235;28;20522;-77
2022/10/06 14:15:23;;;;;;;;;;;27.80;59.00;;;;;;5072109;28;20375;-77
2022/10/06 14:17:59;;;;;;;;;;;27.80;58.90;;;;;;5072966;28;20398;-78
2022/10/06 14:20:37;;;;;;;;;;;27.80;58.80;;;;;;5019776;28;19965;-78
2022/10/06 14:23:22;;;;;;;;;;;27.80;58.80;;;;;;5072807;28;19916;-76
2022/10/06 14:25:48;;;;;;;;;;;27.80;58.80;;;;;;5068216;28;19919;-77
2022/10/06 14:28:13;;;;;;;;;;;27.80;58.80;;;;;;5072931;28;19919;-78
2022/10/06 14:30:39;;;;;;;;;;;27.90;58.80;;;;;;5073855;28;19923;-77
2022/10/06 14:33:05;;;;;;;;;;;27.80;58.70;;;;;;5071201;28;20411;-77
2022/10/06 14:35:30;;;;;;;;;;;27.80;58.60;;;;;;5070594;28;19920;-78